Time;durP1;ratioP1;P1;durP2;ratioP2;P2;SDS_P1;SDS_P2;PMS_P1;PMS_P2;Temp;Humidity;BMP_temperature;BMP_pressure;BME280_temperature;BME280_humidity;BME280_pressure;Samples;Min_cycle;Max_cycle;Signal;HPM_P1;HPM_P2
2023/07/21 00:00:34;;;;;;;3.90;2.80;;;;;;;20.16;38.66;100811.47;5049488;28;20557;-69
2023/07/21 00:03:05;;;;;;;4.60;2.78;;;;;;;20.17;38.67;100801.22;5050421;28;20041;-69
2023/07/21 00:05:33;;;;;;;3.75;2.72;;;;;;;20.14;38.45;100805.25;5049656;28;20139;-69
2023/07/21 00:08:01;;;;;;;3.78;2.83;;;;;;;20.12;38.28;100799.03;5049370;28;20120;-69
2023/07/21 00:10:29;;;;;;;4.15;3.03;;;;;;;20.12;38.51;100804.56;5049676;28;20052;-69
2023/07/21 00:12:57;;;;;;;3.50;2.83;;;;;;;20.10;38.59;100795.59;5031899;28;20642;-69
2023/07/21 00:15:25;;;;;;;4.00;2.80;;;;;;;20.10;38.63;100805.84;5049006;28;20099;-68
2023/07/21 00:17:52;;;;;;;3.90;2.90;;;;;;;20.08;38.66;100803.28;5050225;28;20076;-68
2023/07/21 00:20:24;;;;;;;4.30;2.88;;;;;;;20.10;38.93;100800.31;5047983;28;20047;-68
2023/07/21 00:22:53;;;;;;;4.93;2.92;;;;;;;20.04;38.61;100804.72;5059572;28;20049;-69
2023/07/21 00:25:20;;;;;;;4.32;2.78;;;;;;;20.04;38.91;100798.31;5049498;28;20219;-69
2023/07/21 00:27:48;;;;;;;3.30;2.55;;;;;;;20.02;38.74;100799.38;5049160;28;20041;-69
2023/07/21 00:30:18;;;;;;;4.57;2.97;;;;;;;20.02;38.40;100799.38;5031114;28;20385;-68
2023/07/21 00:32:46;;;;;;;3.70;2.72;;;;;;;20.00;38.68;100797.84;5050069;28;20041;-69
2023/07/21 00:35:14;;;;;;;4.20;3.08;;;;;;;20.00;38.75;100800.63;5049357;28;20433;-69
2023/07/21 00:37:43;;;;;;;3.65;2.95;;;;;;;20.01;38.92;100799.56;5049268;28;20452;-69
2023/07/21 00:40:18;;;;;;;4.00;2.75;;;;;;;19.96;39.08;100791.81;5030608;28;20577;-69
2023/07/21 00:42:47;;;;;;;4.50;3.28;;;;;;;19.95;39.23;100786.47;5031252;28;20447;-69
2023/07/21 00:45:15;;;;;;;3.90;2.58;;;;;;;19.94;39.02;100793.09;5045478;28;20049;-69
2023/07/21 00:47:44;;;;;;;3.97;2.90;;;;;;;19.92;38.95;100790.50;5065082;28;20107;-68
2023/07/21 00:50:14;;;;;;;3.97;3.10;;;;;;;19.92;39.36;100787.72;5046360;28;20103;-68
2023/07/21 00:52:44;;;;;;;4.35;3.15;;;;;;;19.92;39.39;100784.94;5047217;28;20433;-69
2023/07/21 00:55:12;;;;;;;3.90;2.83;;;;;;;19.89;39.08;100782.50;5048955;28;20071;-68
2023/07/21 00:57:40;;;;;;;4.68;2.97;;;;;;;19.88;39.13;100769.69;5049003;28;20052;-70
2023/07/21 01:00:12;;;;;;;4.03;2.95;;;;;;;19.86;39.39;100771.81;5049541;28;20091;-68
2023/07/21 01:02:41;;;;;;;4.40;3.15;;;;;;;19.85;39.18;100774.78;5048762;28;20423;-69
2023/07/21 01:05:12;;;;;;;4.97;3.28;;;;;;;19.83;39.35;100772.19;5030598;28;20132;-68
2023/07/21 01:07:41;;;;;;;4.75;3.28;;;;;;;19.82;39.08;100764.94;5048886;28;20037;-68
2023/07/21 01:10:13;;;;;;;5.10;3.60;;;;;;;19.83;39.72;100774.97;5064480;28;20107;-68
2023/07/21 01:12:41;;;;;;;5.57;3.65;;;;;;;19.79;39.81;100781.16;5048857;28;20127;-68
2023/07/21 01:15:11;;;;;;;6.00;4.10;;;;;;;19.79;39.69;100768.09;5030998;28;20460;-68
2023/07/21 01:17:39;;;;;;;4.80;3.80;;;;;;;19.79;39.25;100767.25;5034106;28;20056;-68
2023/07/21 01:20:09;;;;;;;5.10;3.90;;;;;;;19.78;39.45;100763.63;5052787;28;20128;-68
2023/07/21 01:22:41;;;;;;;5.47;4.13;;;;;;;19.76;39.52;100762.94;5052807;28;20041;-68
2023/07/21 01:25:13;;;;;;;5.85;4.07;;;;;;;19.74;39.85;100761.41;5052099;28;20428;-68
2023/07/21 01:27:43;;;;;;;6.25;4.90;;;;;;;19.72;39.78;100769.94;5052846;28;20032;-69
2023/07/21 01:30:14;;;;;;;5.70;4.45;;;;;;;19.74;40.18;100758.63;5068469;28;20136;-69
2023/07/21 01:32:45;;;;;;;5.68;4.07;;;;;;;19.72;39.37;100760.75;5052892;28;20048;-68
2023/07/21 01:35:15;;;;;;;5.50;4.28;;;;;;;19.71;39.65;100761.81;5050757;28;20045;-68
2023/07/21 01:37:46;;;;;;;5.32;4.25;;;;;;;19.69;39.84;100752.81;5068246;28;20041;-69
2023/07/21 01:40:16;;;;;;;5.80;4.30;;;;;;;19.69;40.10;100738.94;5051331;28;20052;-69
2023/07/21 01:42:47;;;;;;;5.82;4.70;;;;;;;19.66;40.18;100737.41;5052615;28;20037;-69
2023/07/21 01:45:15;;;;;;;6.50;4.32;;;;;;;19.62;40.18;100738.88;5052084;28;20037;-69
2023/07/21 01:47:45;;;;;;;6.55;5.10;;;;;;;19.62;39.95;100749.97;5052410;28;20051;-70
2023/07/21 01:50:16;;;;;;;6.25;4.70;;;;;;;19.60;40.02;100744.63;5052320;28;20056;-69
2023/07/21 01:52:46;;;;;;;5.13;3.92;;;;;;;19.59;40.48;100740.13;5048896;28;20041;-69
2023/07/21 01:55:23;;;;;;;5.18;4.15;;;;;;;19.59;41.24;100739.25;5051233;28;20040;-69
2023/07/21 01:57:55;;;;;;;5.15;3.83;;;;;;;19.58;40.28;100734.75;5033254;28;20087;-69
2023/07/21 02:00:26;;;;;;;6.25;4.38;;;;;;;19.53;40.65;100729.81;5050020;28;20049;-68
2023/07/21 02:02:55;;;;;;;5.75;4.25;;;;;;;19.55;40.39;100727.66;5034460;28;20079;-69
2023/07/21 02:05:25;;;;;;;6.15;4.05;;;;;;;19.55;40.27;100726.81;5050047;28;20057;-69
2023/07/21 02:07:54;;;;;;;5.18;4.10;;;;;;;19.53;39.94;100731.72;5050828;28;20037;-69
2023/07/21 02:10:24;;;;;;;5.70;4.65;;;;;;;19.54;40.59;100730.66;5033516;28;20045;-69
2023/07/21 02:13:10;;;;;;;5.00;4.00;;;;;;;19.50;40.31;100727.41;5033207;28;20045;-70
2023/07/21 02:15:38;;;;;;;6.18;4.35;;;;;;;19.51;39.98;100733.81;5050629;28;20041;-69
2023/07/21 02:18:06;;;;;;;6.90;5.15;;;;;;;19.49;40.23;100728.47;5033469;28;20119;-70
2023/07/21 02:20:34;;;;;;;6.22;5.13;;;;;;;19.48;40.55;100735.06;5033182;28;20431;-68
2023/07/21 02:23:02;;;;;;;6.78;5.28;;;;;;;19.48;40.38;100731.44;5033524;28;20052;-69
2023/07/21 02:25:31;;;;;;;7.20;5.65;;;;;;;19.48;40.11;100735.06;5050985;28;20048;-68
2023/07/21 02:27:59;;;;;;;6.70;5.85;;;;;;;19.46;40.14;100730.78;5032854;28;20099;-68
2023/07/21 02:30:29;;;;;;;6.68;5.60;;;;;;;19.45;40.31;100723.53;5032763;28;20524;-68
2023/07/21 02:32:56;;;;;;;7.70;6.38;;;;;;;19.43;40.22;100732.03;5033449;28;20052;-68
2023/07/21 02:35:24;;;;;;;7.43;6.07;;;;;;;19.43;40.58;100712.59;5032936;28;20131;-68
2023/07/21 02:37:52;;;;;;;7.85;6.28;;;;;;;19.41;40.70;100705.53;5049466;28;20045;-68
2023/07/21 02:40:20;;;;;;;8.15;6.65;;;;;;;19.40;40.70;100717.69;5050478;28;20045;-67
2023/07/21 02:42:50;;;;;;;7.82;6.38;;;;;;;19.40;40.68;100715.75;5032943;28;20459;-69
2023/07/21 02:45:18;;;;;;;8.40;6.47;;;;;;;19.37;40.71;100718.94;5050948;28;20467;-69
2023/07/21 02:47:46;;;;;;;6.72;5.70;;;;;;;19.36;41.18;100720.00;5050983;28;20041;-68
2023/07/21 02:50:16;;;;;;;8.00;6.00;;;;;;;19.38;41.31;100720.63;5036376;28;20137;-68
2023/07/21 02:52:44;;;;;;;7.80;5.95;;;;;;;19.35;40.99;100720.19;5050945;28;20048;-69
2023/07/21 02:55:12;;;;;;;7.38;6.45;;;;;;;19.35;41.03;100721.06;5050292;28;20041;-69
2023/07/21 02:57:40;;;;;;;6.70;5.82;;;;;;;19.35;40.51;100722.97;5049281;28;20037;-68
2023/07/21 03:00:15;;;;;;;7.53;6.00;;;;;;;19.37;41.26;100723.63;5049573;28;20044;-70
2023/07/21 03:02:54;;;;;;;7.63;6.20;;;;;;;19.31;40.63;100722.47;5032507;28;20503;-68
2023/07/21 03:05:23;;;;;;;7.50;6.60;;;;;;;19.32;40.85;100704.78;5038933;28;20041;-68
2023/07/21 03:07:51;;;;;;;8.98;6.47;;;;;;;19.33;40.54;100705.63;5049077;28;20072;-68
2023/07/21 03:10:19;;;;;;;8.10;6.38;;;;;;;19.33;40.49;100709.28;5049968;28;20114;-68
2023/07/21 03:12:47;;;;;;;10.25;7.18;;;;;;;19.33;40.52;100713.97;5050098;28;20033;-67
2023/07/21 03:15:28;;;;;;;9.55;7.15;;;;;;;19.33;40.97;100712.06;5050102;28;20041;-70
2023/07/21 03:18:05;;;;;;;9.77;7.50;;;;;;;19.31;41.04;100704.97;5049468;28;20041;-70
2023/07/21 03:20:41;;;;;;;7.95;6.75;;;;;;;19.30;40.62;100706.88;5032051;28;20088;-70
2023/07/21 03:23:11;;;;;;;7.72;6.47;;;;;;;19.30;40.49;100706.03;5031608;28;20583;-70
2023/07/21 03:25:42;;;;;;;8.18;6.47;;;;;;;19.31;40.92;100702.19;5031924;28;20396;-68
2023/07/21 03:28:10;;;;;;;7.90;6.90;;;;;;;19.26;40.96;100705.56;5049072;28;20128;-69
2023/07/21 03:30:45;;;;;;;9.27;7.05;;;;;;;19.25;41.12;100703.84;5048580;28;20124;-67
2023/07/21 03:33:21;;;;;;;10.23;7.65;;;;;;;19.24;41.22;100707.66;5031357;28;20041;-70
2023/07/21 03:36:01;;;;;;;8.90;7.35;;;;;;;19.23;41.12;100705.94;5049073;28;20384;-69
2023/07/21 03:38:32;;;;;;;8.48;7.43;;;;;;;19.22;40.93;100709.78;5065248;28;20056;-69
2023/07/21 03:41:01;;;;;;;10.07;7.75;;;;;;;19.20;41.27;100701.66;5048380;28;20413;-68
2023/07/21 03:43:33;;;;;;;9.57;7.72;;;;;;;19.16;41.08;100696.66;5048333;28;20045;-68
2023/07/21 03:46:04;;;;;;;9.82;7.35;;;;;;;19.17;41.19;100707.56;5065237;28;20040;-68
2023/07/21 03:48:42;;;;;;;9.43;7.43;;;;;;;19.13;41.18;100697.88;5065147;28;20041;-69
2023/07/21 03:51:11;;;;;;;9.38;7.68;;;;;;;19.11;41.01;100711.13;5049443;28;20060;-69
2023/07/21 03:53:43;;;;;;;9.80;7.55;;;;;;;19.07;40.98;100714.47;5048250;28;20083;-69
2023/07/21 03:56:11;;;;;;;9.30;6.85;;;;;;;19.09;41.03;100712.34;5048176;28;20049;-69
2023/07/21 03:58:39;;;;;;;9.70;7.30;;;;;;;19.07;41.06;100712.53;5064995;28;20393;-69
2023/07/21 04:01:08;;;;;;;8.63;7.30;;;;;;;19.09;41.35;100713.22;5048765;28;20044;-69
2023/07/21 04:03:36;;;;;;;9.15;7.32;;;;;;;19.06;41.52;100710.81;5031242;28;20048;-69
2023/07/21 04:06:07;;;;;;;8.70;6.43;;;;;;;19.06;41.23;100712.72;5031962;28;20114;-69
2023/07/21 04:08:35;;;;;;;8.70;6.95;;;;;;;19.05;41.08;100713.81;5032138;28;20455;-70
2023/07/21 04:11:04;;;;;;;8.48;6.95;;;;;;;19.06;41.44;100708.03;5049699;28;20451;-69
2023/07/21 04:13:32;;;;;;;8.48;7.38;;;;;;;19.06;41.64;100704.41;5031641;28;20132;-70
2023/07/21 04:16:01;;;;;;;11.50;7.47;;;;;;;19.05;41.67;100706.31;5030579;28;20056;-69
2023/07/21 04:18:30;;;;;;;10.30;7.75;;;;;;;19.05;41.60;100708.28;5046656;28;20045;-69
2023/07/21 04:20:58;;;;;;;8.93;7.80;;;;;;;19.01;41.07;100712.47;5029257;28;20482;-69
2023/07/21 04:23:26;;;;;;;7.90;6.45;;;;;;;18.99;41.24;100717.34;5062331;28;20535;-69
2023/07/21 04:25:54;;;;;;;9.07;7.45;;;;;;;18.97;41.44;100717.53;5028813;28;20051;-70
2023/07/21 04:28:22;;;;;;;8.38;7.05;;;;;;;18.97;41.19;100716.66;5028806;28;20036;-69
2023/07/21 04:30:53;;;;;;;8.50;6.53;;;;;;;18.95;41.65;100708.56;5028802;28;20037;-69
2023/07/21 04:33:22;;;;;;;8.00;6.05;;;;;;;18.92;41.70;100708.94;5045557;28;20515;-70
2023/07/21 04:35:52;;;;;;;8.57;6.90;;;;;;;18.91;41.37;100712.75;5045666;28;20037;-69
2023/07/21 04:38:26;;;;;;;7.38;6.38;;;;;;;18.86;41.72;100707.81;5045438;28;20065;-69
2023/07/21 04:41:03;;;;;;;7.57;6.47;;;;;;;18.84;41.46;100709.91;5028191;28;20482;-69
2023/07/21 04:43:31;;;;;;;7.80;6.20;;;;;;;18.83;41.56;100710.09;5096290;22;20036;-84
2023/07/21 04:45:59;;;;;;;7.07;6.13;;;;;;;18.81;41.46;100707.50;5079644;28;20064;-84
2023/07/21 04:48:33;;;;;;;7.45;5.95;;;;;;;18.79;41.77;100704.09;5070333;28;20036;-86
2023/07/21 04:51:04;;;;;;;7.93;6.30;;;;;;;18.79;41.70;100704.09;5088888;28;20040;-85
2023/07/21 04:53:32;;;;;;;7.32;6.22;;;;;;;18.74;41.85;100701.00;5094452;28;20094;-86
2023/07/21 04:56:00;;;;;;;8.23;6.32;;;;;;;18.74;41.97;100695.47;5091620;28;20724;-86
2023/07/21 04:58:34;;;;;;;6.57;5.63;;;;;;;18.73;42.06;100693.72;5090101;28;20039;-86
2023/07/21 05:01:02;;;;;;;7.95;6.15;;;;;;;18.72;42.03;100697.56;5092296;28;20028;-86
2023/07/21 05:03:30;;;;;;;8.13;6.20;;;;;;;18.71;42.23;100697.78;5092698;28;20042;-86
2023/07/21 05:05:58;;;;;;;7.32;6.00;;;;;;;18.71;42.01;100697.78;5088856;28;20051;-86
2023/07/21 05:08:28;;;;;;;8.15;6.55;;;;;;;18.72;41.87;100703.09;5091268;28;20047;-86
2023/07/21 05:10:59;;;;;;;8.20;5.82;;;;;;;18.68;42.27;100712.00;5092755;28;20046;-86
2023/07/21 05:13:29;;;;;;;7.85;6.47;;;;;;;18.71;42.28;100706.09;5109816;28;20044;-85
2023/07/21 05:20:03;;;;;;;7.47;5.63;;;;;;;18.65;42.62;100710.47;5090529;28;20063;-86
2023/07/21 05:22:44;;;;;;;8.07;6.45;;;;;;;18.69;42.56;100705.41;5090375;28;20040;-86
2023/07/21 05:25:39;;;;;;;8.43;6.43;;;;;;;18.71;42.65;100709.72;5097480;28;20055;-86
2023/07/21 05:28:08;;;;;;;8.15;6.00;;;;;;;18.73;42.61;100703.97;5093647;28;20040;-85
2023/07/21 05:30:41;;;;;;;9.13;6.63;;;;;;;18.75;43.04;100697.19;5089189;28;20051;-85
2023/07/21 05:33:14;;;;;;;8.15;6.70;;;;;;;18.79;43.30;100706.00;5107224;28;20092;-84
2023/07/21 05:35:42;;;;;;;8.95;7.47;;;;;;;18.81;43.04;100701.94;5087242;28;20044;-86
2023/07/21 05:38:18;;;;;;;10.35;7.57;;;;;;;18.84;42.91;100709.03;5092139;28;20327;-86
2023/07/21 05:40:57;;;;;;;7.70;6.88;;;;;;;18.92;43.79;100714.47;5091608;28;20075;-86
2023/07/21 05:43:28;;;;;;;8.68;7.15;;;;;;;18.91;42.99;100715.53;5090154;28;20046;-86
2023/07/21 05:45:56;;;;;;;7.63;6.43;;;;;;;18.97;43.21;100711.13;5088752;28;20040;-86
2023/07/21 05:48:27;;;;;;;9.18;6.60;;;;;;;19.03;43.83;100714.00;5090261;28;20036;-86
2023/07/21 05:51:00;;;;;;;7.72;6.78;;;;;;;19.05;43.78;100711.88;5091839;28;20039;-86
2023/07/21 05:53:28;;;;;;;7.93;6.72;;;;;;;19.12;43.37;100709.22;5091439;28;20043;-86
2023/07/21 05:56:00;;;;;;;8.57;7.13;;;;;;;19.20;43.45;100717.41;5087239;28;20122;-86
2023/07/21 05:58:45;;;;;;;8.07;6.50;;;;;;;19.22;43.38;100715.31;5089819;28;20054;-86
2023/07/21 06:01:14;;;;;;;8.45;7.55;;;;;;;19.29;42.74;100709.88;5092290;28;20089;-84
2023/07/21 06:03:42;;;;;;;9.02;7.40;;;;;;;19.35;42.98;100718.28;5094347;28;20413;-84
2023/07/21 06:06:10;;;;;;;10.57;7.32;;;;;;;19.39;42.87;100714.03;5091385;28;20076;-84
2023/07/21 06:08:58;;;;;;;8.85;7.10;;;;;;;19.45;43.05;100704.09;5113944;28;20051;-85
2023/07/21 06:12:00;;;;;;;8.70;7.30;;;;;;;19.52;42.63;100708.66;5073598;28;20075;-84
2023/07/21 06:15:00;;;;;;;7.80;6.83;;;;;;;19.54;43.04;100709.28;5095232;28;20059;-85
2023/07/21 06:18:10;;;;;;;7.85;6.63;;;;;;;19.60;42.71;100707.66;5095146;28;20079;-86
2023/07/21 06:23:58;;;;;;;8.30;6.65;;;;;;;19.74;42.67;100705.88;5084956;28;20115;-85
2023/07/21 06:26:58;;;;;;;8.30;6.75;;;;;;;19.82;42.09;100701.06;5107937;27;20171;-85
2023/07/21 06:30:13;;;;;;;8.60;6.97;;;;;;;19.85;42.04;100708.13;5108734;28;20044;-85
2023/07/21 06:37:14;;;;;;;6.80;5.68;;;;;;;19.94;42.16;100704.19;5096474;27;20065;-85
2023/07/21 06:39:53;;;;;;;7.53;6.28;;;;;;;20.02;41.74;100699.38;5113585;27;20040;-85
2023/07/21 06:43:36;;;;;;;7.57;6.75;;;;;;;20.09;41.39;100702.19;5087388;28;20047;-86
2023/07/21 06:47:10;;;;;;;6.70;5.82;;;;;;;20.21;41.23;100696.94;4948008;28;20043;-85
2023/07/21 06:50:11;;;;;;;9.13;6.30;;;;;;;20.27;41.73;100698.94;5071579;28;20055;-82
2023/07/21 06:52:45;;;;;;;;;;;;;;;20.05;41.43;100697.22;5099830;28;20039;-82
2023/07/21 06:55:14;;;;;;;6.82;5.15;;;;;;;20.37;41.33;100700.28;5093643;28;20390;-82
2023/07/21 06:57:42;;;;;;;7.72;6.13;;;;;;;20.47;40.75;100699.91;5095326;28;20093;-81
2023/07/21 07:00:14;;;;;;;7.35;6.35;;;;;;;20.56;40.80;100697.84;5091060;28;20031;-82
2023/07/21 07:02:47;;;;;;;6.97;5.35;;;;;;;20.63;40.50;100699.63;5097602;28;20052;-81
2023/07/21 07:05:20;;;;;;;8.07;6.30;;;;;;;20.68;40.58;100691.56;5090961;28;20039;-82
2023/07/21 07:08:04;;;;;;;7.03;5.85;;;;;;;20.76;40.52;100691.38;5071488;28;20569;-82
2023/07/21 07:10:32;;;;;;;6.97;5.68;;;;;;;20.86;40.24;100695.72;5094952;28;20063;-81
2023/07/21 07:13:00;;;;;;;8.13;6.38;;;;;;;20.93;40.01;100691.91;5097283;28;20093;-81
2023/07/21 07:15:31;;;;;;;7.70;5.97;;;;;;;21.01;40.16;100697.28;5095836;28;20058;-82
2023/07/21 07:18:01;;;;;;;7.57;6.07;;;;;;;21.09;39.55;100697.13;5097659;28;20093;-82
2023/07/21 07:20:30;;;;;;;7.03;5.63;;;;;;;21.13;39.70;100698.41;5097251;28;20048;-82
2023/07/21 07:22:58;;;;;;;7.10;5.40;;;;;;;21.19;39.25;100690.31;5098328;28;20054;-82
2023/07/21 07:25:27;;;;;;;7.03;5.63;;;;;;;21.26;38.98;100696.78;5095194;28;20062;-82
2023/07/21 07:27:56;;;;;;;6.50;5.80;;;;;;;21.31;39.10;100695.09;5100534;28;20032;-81
2023/07/21 07:30:24;;;;;;;6.50;5.78;;;;;;;21.38;38.75;100695.09;5098765;28;20048;-81
2023/07/21 07:32:55;;;;;;;7.88;5.50;;;;;;;21.42;38.64;100693.63;5096981;28;20066;-82
2023/07/21 07:43:45;;;;;;;6.68;5.28;;;;;;;21.51;38.47;100686.81;5011606;22;20544;-72
2023/07/21 07:46:13;;;;;;;7.75;5.28;;;;;;;21.57;38.50;100685.94;5077332;28;20113;-73
2023/07/21 07:48:41;;;;;;;6.75;5.05;;;;;;;21.64;38.26;100686.81;5097504;28;20120;-73
2023/07/21 07:51:10;;;;;;;4.85;4.15;;;;;;;21.69;38.24;100687.03;5089300;28;20044;-73
2023/07/21 07:53:38;;;;;;;5.18;4.13;;;;;;;21.76;37.71;100685.13;5086485;28;20410;-73
2023/07/21 07:56:06;;;;;;;6.40;4.53;;;;;;;21.83;37.67;100699.06;5086472;28;20052;-72
2023/07/21 07:58:34;;;;;;;4.85;4.07;;;;;;;21.87;37.15;100694.78;5088539;28;20044;-74
2023/07/21 08:01:03;;;;;;;5.22;3.83;;;;;;;21.96;37.07;100696.31;5090444;28;20040;-74
2023/07/21 08:03:33;;;;;;;5.15;4.07;;;;;;;21.99;36.99;100695.03;5089952;28;20584;-73
2023/07/21 08:06:01;;;;;;;4.88;4.03;;;;;;;22.05;37.04;100691.41;5089938;28;20044;-73
2023/07/21 08:08:29;;;;;;;4.80;3.58;;;;;;;22.10;37.11;100688.81;5075133;28;20568;-73
2023/07/21 08:10:57;;;;;;;4.80;3.92;;;;;;;22.16;36.58;100691.63;5088098;28;20050;-73
2023/07/21 08:13:25;;;;;;;4.65;3.67;;;;;;;22.22;36.18;100684.31;5070228;28;20518;-72
2023/07/21 08:15:53;;;;;;;4.47;3.53;;;;;;;22.30;36.35;100686.03;5087965;28;20044;-73
2023/07/21 08:18:23;;;;;;;4.57;3.80;;;;;;;22.37;35.83;100682.16;5087820;28;20459;-72
2023/07/21 08:20:52;;;;;;;4.97;3.60;;;;;;;22.40;35.86;100684.53;5081732;28;20068;-74
2023/07/21 08:23:20;;;;;;;4.82;3.42;;;;;;;22.44;35.67;100677.44;5071635;28;20040;-73
2023/07/21 08:25:57;;;;;;;4.03;3.22;;;;;;;22.47;35.47;100681.72;5087435;28;20036;-74
2023/07/21 08:28:25;;;;;;;5.32;3.72;;;;;;;22.50;34.79;100676.59;5070243;28;20409;-72
2023/07/21 08:30:53;;;;;;;4.70;3.40;;;;;;;22.53;35.19;100692.91;5089537;28;20040;-74
2023/07/21 08:33:28;;;;;;;5.18;4.15;;;;;;;22.56;34.91;100694.41;5089552;28;20418;-73
2023/07/21 08:35:56;;;;;;;5.30;3.97;;;;;;;22.54;34.82;100688.19;5056494;28;20052;-72
2023/07/21 08:38:25;;;;;;;4.57;3.67;;;;;;;22.55;34.57;100690.75;5071331;28;20294;-73
2023/07/21 08:41:00;;;;;;;4.68;3.63;;;;;;;22.57;34.00;100693.34;5071223;28;20047;-72
2023/07/21 08:43:29;;;;;;;4.75;3.78;;;;;;;22.54;34.99;100694.63;5089232;28;20072;-73
2023/07/21 08:46:01;;;;;;;4.45;3.60;;;;;;;22.56;34.55;100688.81;5089635;28;20109;-74
2023/07/21 08:48:31;;;;;;;5.53;4.20;;;;;;;22.53;34.46;100695.69;5070940;28;20043;-73
2023/07/21 08:51:00;;;;;;;4.80;3.75;;;;;;;22.52;34.31;100690.28;5089778;28;20036;-72
2023/07/21 08:53:28;;;;;;;5.15;3.72;;;;;;;22.51;34.11;100689.44;5089225;28;20046;-73
2023/07/21 08:55:57;;;;;;;4.30;3.25;;;;;;;22.50;33.95;100690.53;5089360;28;20597;-74
2023/07/21 08:58:26;;;;;;;4.85;3.35;;;;;;;22.50;34.02;100692.47;5067644;28;20459;-73
2023/07/21 09:00:56;;;;;;;4.50;3.22;;;;;;;22.49;33.76;100685.16;5070750;28;20123;-72
2023/07/21 09:03:26;;;;;;;4.50;3.03;;;;;;;22.47;34.01;100690.94;5094209;28;20047;-73
2023/07/21 09:05:58;;;;;;;5.22;3.47;;;;;;;22.49;33.39;100690.75;5092339;28;20040;-73
2023/07/21 09:08:28;;;;;;;4.45;3.20;;;;;;;22.47;33.71;100693.75;5081834;28;20051;-74
2023/07/21 09:10:59;;;;;;;4.55;3.05;;;;;;;22.50;33.54;100681.31;5087891;28;20119;-72
2023/07/21 09:13:28;;;;;;;4.78;3.40;;;;;;;22.45;33.69;100690.31;5070046;28;20418;-72
2023/07/21 09:15:58;;;;;;;4.40;3.40;;;;;;;22.48;33.46;100691.81;5069386;28;20043;-74
2023/07/21 09:18:27;;;;;;;4.03;3.33;;;;;;;22.49;33.48;100687.94;5088009;28;20129;-73
2023/07/21 09:20:58;;;;;;;5.18;3.72;;;;;;;22.51;33.25;100695.00;5071535;28;20414;-74
2023/07/21 09:23:29;;;;;;;4.90;3.53;;;;;;;22.49;33.47;100687.94;5070819;28;20113;-74
2023/07/21 09:25:59;;;;;;;4.38;3.05;;;;;;;22.49;33.51;100683.22;5056458;28;20049;-74
2023/07/21 09:28:43;;;;;;;3.92;2.38;;;;;;;22.53;33.29;100690.09;5070054;28;20135;-73
2023/07/21 09:31:12;;;;;;;5.07;3.10;;;;;;;22.54;33.29;100688.19;5057273;28;20036;-74
2023/07/21 09:33:42;;;;;;;5.03;2.90;;;;;;;22.56;33.36;100686.03;5080479;28;20059;-73
2023/07/21 09:36:15;;;;;;;3.70;2.50;;;;;;;22.60;32.86;100687.28;5089853;28;20047;-74
2023/07/21 09:38:44;;;;;;;3.88;2.47;;;;;;;22.60;33.28;100693.72;5086665;28;20094;-73
2023/07/21 09:41:15;;;;;;;3.97;2.65;;;;;;;22.64;33.00;100694.16;5082990;28;20040;-73
2023/07/21 09:43:44;;;;;;;3.80;2.83;;;;;;;22.62;32.81;100697.19;5073939;28;20044;-74
2023/07/21 09:46:12;;;;;;;3.90;2.85;;;;;;;22.67;32.69;100690.09;5092536;28;20043;-74
2023/07/21 09:48:56;;;;;;;4.90;3.10;;;;;;;22.69;32.62;100691.56;5090502;28;20468;-74
2023/07/21 09:51:29;;;;;;;3.35;2.55;;;;;;;22.75;32.81;100679.56;5092825;28;20466;-74
2023/07/21 09:53:59;;;;;;;3.50;2.80;;;;;;;22.79;33.00;100683.63;5090713;28;20044;-75
2023/07/21 09:56:30;;;;;;;3.83;2.85;;;;;;;22.81;32.73;100678.69;5074254;28;20119;-74
2023/07/21 09:59:01;;;;;;;3.65;2.90;;;;;;;22.87;32.23;100677.78;5070882;28;20236;-74
2023/07/21 10:01:30;;;;;;;3.92;2.83;;;;;;;22.89;32.60;100680.38;5070477;28;20063;-75
2023/07/21 10:04:00;;;;;;;4.53;3.15;;;;;;;22.97;32.61;100675.41;5073754;28;20522;-74
2023/07/21 10:06:32;;;;;;;3.80;2.90;;;;;;;23.02;32.45;100683.09;5092520;28;20047;-74
2023/07/21 10:09:03;;;;;;;3.70;2.53;;;;;;;23.07;32.25;100679.66;5089683;28;20129;-73
2023/07/21 10:11:31;;;;;;;3.78;2.65;;;;;;;23.10;32.11;100679.19;5091497;28;20511;-74
2023/07/21 10:13:59;;;;;;;3.17;2.35;;;;;;;23.14;31.65;100672.13;5091216;28;20055;-74
2023/07/21 10:16:30;;;;;;;4.28;2.70;;;;;;;23.21;31.77;100673.81;5081703;28;20047;-73
2023/07/21 10:19:08;;;;;;;3.45;2.60;;;;;;;23.25;31.23;100671.47;5073224;28;20489;-74
2023/07/21 10:21:53;;;;;;;4.38;2.60;;;;;;;23.27;31.06;100677.66;5107412;28;20046;-74
2023/07/21 10:24:25;;;;;;;3.40;2.38;;;;;;;23.33;31.08;100677.63;5091441;28;20572;-73
2023/07/21 10:27:02;;;;;;;3.22;2.13;;;;;;;23.37;30.66;100667.72;5073707;28;20044;-73
2023/07/21 10:29:30;;;;;;;2.85;2.25;;;;;;;23.40;31.01;100666.44;5080734;28;20530;-73
2023/07/21 10:31:59;;;;;;;2.92;1.83;;;;;;;23.45;30.60;100674.13;5092573;28;20110;-73
2023/07/21 10:34:32;;;;;;;2.75;1.88;;;;;;;23.50;29.96;100671.50;5073502;28;20048;-72
2023/07/21 10:37:04;;;;;;;3.00;1.85;;;;;;;23.52;29.98;100673.00;5091256;28;20043;-74
2023/07/21 10:39:34;;;;;;;2.30;1.77;;;;;;;23.53;30.37;100659.91;5073338;28;20445;-74
2023/07/21 10:42:03;;;;;;;3.05;1.83;;;;;;;23.56;30.32;100665.03;5089698;28;20072;-73
2023/07/21 10:44:33;;;;;;;2.50;1.70;;;;;;;23.59;29.86;100667.38;5079497;22;20053;-74
2023/07/21 10:47:01;;;;;;;3.90;2.08;;;;;;;23.60;29.82;100658.78;5080647;28;20036;-73
2023/07/21 10:49:29;;;;;;;3.65;2.03;;;;;;;23.63;29.90;100658.34;5076310;28;20533;-75
2023/07/21 10:51:58;;;;;;;2.58;1.73;;;;;;;23.65;29.75;100658.97;5080648;28;20040;-73
2023/07/21 10:54:27;;;;;;;3.22;1.90;;;;;;;23.70;29.67;100656.34;5089284;28;20109;-73
2023/07/21 10:56:55;;;;;;;3.88;1.73;;;;;;;23.71;29.78;100657.19;5075680;28;20039;-73
2023/07/21 10:59:24;;;;;;;2.35;1.55;;;;;;;23.74;29.58;100646.41;5079404;28;20483;-74
2023/07/21 11:01:54;;;;;;;2.65;1.80;;;;;;;23.79;29.38;100647.72;5080733;28;20518;-74
2023/07/21 11:04:24;;;;;;;2.50;1.80;;;;;;;23.82;29.18;100639.75;5086696;28;20130;-73
2023/07/21 11:06:54;;;;;;;2.45;1.75;;;;;;;23.86;28.91;100635.41;5083779;28;20545;-73
2023/07/21 11:09:24;;;;;;;3.05;1.85;;;;;;;23.90;28.96;100636.66;5083313;28;20048;-74
2023/07/21 11:11:57;;;;;;;2.35;1.42;;;;;;;23.96;29.07;100638.56;5081014;28;20058;-73
2023/07/21 11:14:27;;;;;;;2.38;1.58;;;;;;;24.01;28.71;100632.25;5087149;28;20047;-74
2023/07/21 11:16:56;;;;;;;3.10;1.90;;;;;;;24.04;28.50;100634.59;5089415;28;20040;-73
2023/07/21 11:19:26;;;;;;;3.10;1.98;;;;;;;24.06;28.21;100633.31;5081141;28;20044;-73
2023/07/21 11:21:55;;;;;;;3.17;1.90;;;;;;;24.09;28.11;100638.41;5084174;28;20097;-74
2023/07/21 11:24:29;;;;;;;2.75;1.90;;;;;;;24.12;27.93;100634.31;5086906;28;20043;-75
2023/07/21 11:27:02;;;;;;;2.85;2.15;;;;;;;24.16;27.27;100638.34;5081006;28;20466;-74
2023/07/21 11:29:39;;;;;;;3.25;1.75;;;;;;;24.15;27.60;100622.69;5081342;28;20064;-74
2023/07/21 11:32:18;;;;;;;3.23;1.77;;;;;;;24.15;26.93;100623.50;5090505;28;20054;-73
2023/07/21 11:34:46;;;;;;;3.03;1.80;;;;;;;24.13;27.60;100620.13;5088137;28;20043;-74
2023/07/21 11:37:15;;;;;;;2.30;1.60;;;;;;;24.13;27.50;100617.31;5082605;28;20570;-74
2023/07/21 11:39:55;;;;;;;2.60;1.60;;;;;;;24.13;27.42;100611.72;5086022;28;20566;-74
2023/07/21 11:42:25;;;;;;;2.78;1.65;;;;;;;24.14;27.73;100623.78;5077632;28;20055;-74
2023/07/21 11:44:54;;;;;;;2.92;1.70;;;;;;;24.11;27.44;100616.69;5087320;28;20093;-72
2023/07/21 11:47:22;;;;;;;3.25;1.85;;;;;;;24.11;27.31;100624.22;5082007;28;20044;-75
2023/07/21 11:49:53;;;;;;;3.42;1.85;;;;;;;24.14;27.15;100620.97;5086995;28;20048;-75
2023/07/21 11:52:24;;;;;;;3.35;1.52;;;;;;;24.11;27.31;100611.09;5083471;28;20044;-74
2023/07/21 11:54:53;;;;;;;2.85;1.83;;;;;;;24.10;27.06;100617.78;5089086;28;20541;-73
2023/07/21 11:57:21;;;;;;;2.60;1.80;;;;;;;24.10;27.21;100612.19;5081961;28;20086;-74
2023/07/21 11:59:51;;;;;;;3.30;1.80;;;;;;;24.12;27.20;100603.56;5085068;28;20047;-73
2023/07/21 12:02:22;;;;;;;2.55;1.80;;;;;;;24.12;27.28;100604.44;5077157;28;20055;-74
2023/07/21 12:04:51;;;;;;;;;;;;;;;23.84;27.76;100601.22;5089878;28;20506;-74